createdAt,value
2023-01-17T00:01:55.094Z,98426.16
2023-01-17T00:04:40.876Z,98422.05
2023-01-17T00:07:28.807Z,98414.95
2023-01-17T00:09:57.406Z,98406.83
2023-01-17T00:12:27.027Z,98407.00
2023-01-17T00:14:55.173Z,98408.90
2023-01-17T00:17:27.039Z,98407.65
2023-01-17T00:20:13.594Z,98407.34
2023-01-17T00:23:01.487Z,98404.30
2023-01-17T00:25:50.853Z,98404.30
2023-01-17T00:28:17.971Z,98398.98
2023-01-17T00:30:45.572Z,98393.82
2023-01-17T00:33:12.358Z,98389.15
2023-01-17T00:35:39.346Z,98384.80
2023-01-17T00:38:15.166Z,98385.87
2023-01-17T00:40:43.868Z,98381.05
2023-01-17T00:43:48.841Z,98376.42
2023-01-17T00:46:35.452Z,98371.20
2023-01-17T00:49:22.047Z,98364.23
2023-01-17T00:52:07.921Z,98363.08
2023-01-17T00:54:52.943Z,98359.08
2023-01-17T00:57:38.696Z,98359.68
2023-01-17T01:00:30.212Z,98354.61
2023-01-17T01:03:16.195Z,98354.80
2023-01-17T01:06:01.605Z,98351.04
2023-01-17T01:08:48.078Z,98343.45
2023-01-17T01:11:36.496Z,98338.30
2023-01-17T01:14:28.153Z,98327.36
2023-01-17T01:17:13.598Z,98322.84
2023-01-17T01:20:04.321Z,98314.39
2023-01-17T01:22:49.699Z,98305.98
2023-01-17T01:25:35.171Z,98301.85
2023-01-17T01:28:31.656Z,98292.58
2023-01-17T01:31:35.972Z,98290.07
2023-01-17T01:34:02.715Z,98286.89
2023-01-17T01:36:29.325Z,98288.48
2023-01-17T01:38:56.360Z,98287.61
2023-01-17T01:41:23.100Z,98280.20
2023-01-17T01:43:52.696Z,98280.16
2023-01-17T01:46:28.331Z,98272.70
2023-01-17T01:49:01.084Z,98270.67
2023-01-17T01:51:33.096Z,98263.36
2023-01-17T01:54:15.621Z,98257.90
2023-01-17T01:56:42.648Z,98250.48
2023-01-17T01:59:13.183Z,98244.54
2023-01-17T02:02:00.754Z,98235.01
2023-01-17T02:04:28.204Z,98226.45
2023-01-17T02:07:14.886Z,98215.88
2023-01-17T02:10:00.561Z,98204.99
2023-01-17T02:12:27.919Z,98202.96
2023-01-17T02:15:18.105Z,98194.63
2023-01-17T02:18:34.616Z,98185.54
2023-01-17T02:21:22.649Z,98177.48
2023-01-17T02:24:16.652Z,98165.48
2023-01-17T02:27:05.181Z,98160.81
2023-01-17T02:30:15.240Z,98150.16
2023-01-17T02:33:05.454Z,98147.61
2023-01-17T02:35:57.363Z,98150.47
2023-01-17T02:38:58.915Z,98143.35
2023-01-17T02:41:45.481Z,98142.55
2023-01-17T02:44:16.564Z,98143.72
2023-01-17T02:46:51.940Z,98141.27
2023-01-17T02:49:21.537Z,98136.38
2023-01-17T02:52:44.772Z,98132.32
2023-01-17T02:55:27.709Z,98130.73
2023-01-17T02:58:31.135Z,98126.44
2023-01-17T03:01:34.425Z,98129.88
2023-01-17T03:04:20.805Z,98124.18
2023-01-17T03:06:58.435Z,98116.72
2023-01-17T03:09:26.093Z,98112.33
2023-01-17T03:11:53.502Z,98108.69
2023-01-17T03:14:20.131Z,98101.10
2023-01-17T03:16:47.044Z,98104.89
2023-01-17T03:19:16.537Z,98105.48
2023-01-17T03:21:43.127Z,98099.64
2023-01-17T03:24:09.872Z,98099.21
2023-01-17T03:26:36.699Z,98096.52
2023-01-17T03:29:03.314Z,98091.17
2023-01-17T03:31:29.973Z,98088.71
2023-01-17T03:33:57.035Z,98083.16
2023-01-17T03:36:23.973Z,98083.30
2023-01-17T03:38:50.583Z,98078.83
2023-01-17T03:41:17.224Z,98079.04
2023-01-17T03:43:44.109Z,98070.94
2023-01-17T03:46:23.158Z,98065.18
2023-01-17T03:48:50.471Z,98063.30
2023-01-17T03:51:18.505Z,98059.19
2023-01-17T03:53:49.448Z,98057.39
2023-01-17T03:56:21.241Z,98054.27
2023-01-17T03:58:51.264Z,98048.48
2023-01-17T04:01:18.562Z,98045.01
2023-01-17T04:03:45.429Z,98039.47
2023-01-17T04:06:30.938Z,98031.91
2023-01-17T04:08:57.774Z,98027.13
2023-01-17T04:11:24.408Z,98022.50
2023-01-17T04:13:51.378Z,98024.08
2023-01-17T04:16:19.765Z,98017.51
2023-01-17T04:18:46.488Z,98014.52
2023-01-17T04:21:13.723Z,98011.44
2023-01-17T04:23:40.574Z,98004.10
2023-01-17T04:26:10.645Z,97999.98
2023-01-17T04:28:37.859Z,97998.56
2023-01-17T04:31:23.362Z,97988.44
2023-01-17T04:33:50.240Z,97985.96
2023-01-17T04:36:17.510Z,97980.77
2023-01-17T04:38:44.254Z,97981.14
2023-01-17T04:41:16.239Z,97974.20
2023-01-17T04:43:47.791Z,97970.50
2023-01-17T04:46:14.629Z,97969.95
2023-01-17T04:48:41.245Z,97965.86
2023-01-17T04:51:08.007Z,97969.04
2023-01-17T04:53:34.843Z,97963.39
2023-01-17T04:56:01.690Z,97962.81
2023-01-17T04:58:30.709Z,97967.84
2023-01-17T05:01:03.506Z,97963.93
2023-01-17T05:03:31.514Z,97969.02
2023-01-17T05:05:58.461Z,97969.25
2023-01-17T05:08:25.505Z,97960.83
2023-01-17T05:10:52.655Z,97959.41
2023-01-17T05:13:19.566Z,97959.15
2023-01-17T05:15:47.178Z,97953.10
2023-01-17T05:18:33.015Z,97956.02
2023-01-17T05:21:03.789Z,97953.52
2023-01-17T05:23:30.727Z,97951.83
2023-01-17T05:25:57.477Z,97949.70
2023-01-17T05:28:25.235Z,97943.82
2023-01-17T05:30:51.943Z,97940.49
2023-01-17T05:33:18.820Z,97936.52
2023-01-17T05:35:45.542Z,97933.83
2023-01-17T05:38:12.200Z,97926.30
2023-01-17T05:40:39.144Z,97921.09
2023-01-17T05:43:05.931Z,97921.60
2023-01-17T05:45:34.055Z,97921.17
2023-01-17T05:48:01.752Z,97920.58
2023-01-17T05:50:31.564Z,97921.55
2023-01-17T05:53:21.720Z,97920.75
2023-01-17T05:55:52.045Z,97919.94
2023-01-17T05:58:21.287Z,97922.80
2023-01-17T06:00:48.713Z,97924.58
2023-01-17T06:03:15.967Z,97923.45
2023-01-17T06:05:44.280Z,97921.89
2023-01-17T06:08:11.027Z,97921.32
2023-01-17T06:10:37.803Z,97927.98
2023-01-17T06:13:13.613Z,97923.41
2023-01-17T06:15:40.856Z,97921.55
2023-01-17T06:18:12.478Z,97918.29
2023-01-17T06:20:39.954Z,97912.36
2023-01-17T06:23:10.548Z,97915.30
2023-01-17T06:25:45.117Z,97916.92
2023-01-17T06:28:14.100Z,97908.92
2023-01-17T06:30:41.928Z,97904.94
2023-01-17T06:33:09.707Z,97904.35
2023-01-17T06:35:37.620Z,97908.85
2023-01-17T06:38:04.403Z,97910.81
2023-01-17T06:40:31.245Z,97910.09
2023-01-17T06:43:04.528Z,97906.55
2023-01-17T06:45:33.198Z,97909.42
2023-01-17T06:48:05.501Z,97903.51
2023-01-17T06:50:33.790Z,97908.48
2023-01-17T06:53:19.266Z,97914.15
2023-01-17T06:55:46.208Z,97920.15
2023-01-17T06:58:31.678Z,97918.05
2023-01-17T07:00:59.136Z,97912.34
2023-01-17T07:03:26.530Z,97908.70
2023-01-17T07:05:53.646Z,97905.21
2023-01-17T07:08:20.895Z,97912.13
2023-01-17T07:11:07.471Z,97910.55
2023-01-17T07:13:36.618Z,97910.30
2023-01-17T07:16:22.239Z,97910.05
2023-01-17T07:18:50.962Z,97904.11
2023-01-17T07:21:17.698Z,97905.08
2023-01-17T07:23:44.848Z,97906.03
2023-01-17T07:26:11.892Z,97908.11
2023-01-17T07:28:38.629Z,97905.05
2023-01-17T07:31:07.448Z,97905.02
2023-01-17T07:33:34.881Z,97903.30
2023-01-17T07:36:07.359Z,97897.53
2023-01-17T07:38:34.893Z,97904.23
2023-01-17T07:41:02.104Z,97904.44
2023-01-17T07:43:29.029Z,97902.07
2023-01-17T07:45:55.749Z,97901.59
2023-01-17T07:48:23.930Z,97896.68
2023-01-17T07:50:55.712Z,97896.21
2023-01-17T07:53:41.677Z,97894.00
2023-01-17T07:56:08.680Z,97888.59
2023-01-17T07:58:35.982Z,97888.18
2023-01-17T08:01:05.705Z,97885.82
2023-01-17T08:03:35.670Z,97877.55
2023-01-17T08:06:03.069Z,97876.85
2023-01-17T08:08:29.789Z,97879.45
2023-01-17T08:10:56.530Z,97874.70
2023-01-17T08:13:23.575Z,97873.16
2023-01-17T08:15:51.237Z,97874.09
2023-01-17T08:18:18.080Z,97878.27
2023-01-17T08:20:45.544Z,97878.20
2023-01-17T08:23:12.665Z,97877.76
2023-01-17T08:25:39.525Z,97883.91
2023-01-17T08:28:25.255Z,97883.50
2023-01-17T08:30:52.052Z,97878.70
2023-01-17T08:33:19.001Z,97880.56
2023-01-17T08:36:04.990Z,97878.55
2023-01-17T08:38:31.607Z,97878.57
2023-01-17T08:41:01.132Z,97875.88
2023-01-17T08:43:28.485Z,97878.00
2023-01-17T08:45:55.557Z,97873.14
2023-01-17T08:48:23.089Z,97872.38
2023-01-17T08:50:49.899Z,97875.73
2023-01-17T08:53:17.701Z,97876.36
2023-01-17T08:55:44.436Z,97875.43
2023-01-17T08:58:18.387Z,97869.52
2023-01-17T09:00:45.470Z,97872.88
2023-01-17T09:03:13.669Z,97876.30
2023-01-17T09:05:40.821Z,97874.83
2023-01-17T09:08:07.642Z,97877.04
2023-01-17T09:10:53.653Z,97885.25
2023-01-17T09:13:20.701Z,97885.27
2023-01-17T09:15:47.747Z,97887.75
2023-01-17T09:18:14.327Z,97889.35
2023-01-17T09:20:41.034Z,97892.27
2023-01-17T09:23:07.968Z,97892.70
2023-01-17T09:25:34.807Z,97894.11
2023-01-17T09:28:02.063Z,97893.34
2023-01-17T09:30:28.934Z,97896.27
2023-01-17T09:32:55.961Z,97893.70
2023-01-17T09:35:23.059Z,97895.64
2023-01-17T09:37:50.869Z,97897.79
2023-01-17T09:40:21.749Z,97891.41
2023-01-17T09:42:53.256Z,97884.98
2023-01-17T09:45:29.480Z,97884.67
2023-01-17T09:47:58.385Z,97884.08
2023-01-17T09:50:52.083Z,97881.16
2023-01-17T09:53:22.620Z,97884.70
2023-01-17T09:56:27.248Z,97886.27
2023-01-17T09:59:45.289Z,97893.55
2023-01-17T10:02:33.646Z,97893.17
2023-01-17T10:05:07.191Z,97895.55
2023-01-17T10:08:12.987Z,97894.52
2023-01-17T10:11:08.145Z,97897.30
2023-01-17T10:13:45.924Z,97896.42
2023-01-17T10:16:19.339Z,97895.73
2023-01-17T10:19:24.740Z,97900.39
2023-01-17T10:22:07.029Z,97902.38
2023-01-17T10:24:33.975Z,97901.63
2023-01-17T10:27:02.417Z,97896.87
2023-01-17T10:29:34.436Z,97900.27
2023-01-17T10:32:02.597Z,97903.79
2023-01-17T10:34:45.439Z,97905.08
2023-01-17T10:37:24.364Z,97905.50
2023-01-17T10:39:55.357Z,97901.45
2023-01-17T10:42:27.338Z,97903.48
2023-01-17T10:45:29.839Z,97909.03
2023-01-17T10:48:12.386Z,97906.81
2023-01-17T10:51:12.081Z,97905.02
2023-01-17T10:54:19.207Z,97898.64
2023-01-17T10:56:49.500Z,97891.79
2023-01-17T10:59:31.569Z,97892.50
2023-01-17T11:02:14.425Z,97897.57
2023-01-17T11:04:41.760Z,97890.77
2023-01-17T11:07:10.816Z,97891.92
2023-01-17T11:09:42.866Z,97887.11
2023-01-17T11:12:44.370Z,97888.08
2023-01-17T11:15:15.889Z,97884.88
2023-01-17T11:17:52.506Z,97879.52
2023-01-17T11:20:28.003Z,97877.86
2023-01-17T11:23:17.069Z,97875.70
2023-01-17T11:25:50.567Z,97873.85
2023-01-17T11:28:29.593Z,97876.09
2023-01-17T11:30:59.443Z,97875.65
2023-01-17T11:33:48.264Z,97877.95
2023-01-17T11:36:29.494Z,97873.02
2023-01-17T11:39:04.268Z,97872.84
2023-01-17T11:41:34.945Z,97867.16
2023-01-17T11:44:19.054Z,97860.98
2023-01-17T11:46:46.097Z,97864.98
2023-01-17T11:49:25.239Z,97862.40
2023-01-17T11:51:55.479Z,97859.20
2023-01-17T11:54:32.916Z,97858.50
2023-01-17T11:57:01.226Z,97862.21
2023-01-17T11:59:36.867Z,97858.23
2023-01-17T12:02:18.978Z,97866.45
2023-01-17T12:04:58.333Z,97869.88
2023-01-17T12:07:42.290Z,97870.56
2023-01-17T12:10:19.127Z,97867.17
2023-01-17T12:13:32.258Z,97868.55
2023-01-17T12:16:28.099Z,97866.02
2023-01-17T12:19:13.769Z,97868.86
2023-01-17T12:21:57.749Z,97867.02
2023-01-17T12:25:03.351Z,97867.83
2023-01-17T12:27:48.937Z,97870.30
2023-01-17T12:30:43.836Z,97877.13
2023-01-17T12:34:00.499Z,97878.68
2023-01-17T12:36:35.722Z,97880.41
2023-01-17T12:39:11.227Z,97880.55
2023-01-17T12:41:50.575Z,97880.27
2023-01-17T12:44:23.040Z,97883.16
2023-01-17T12:46:58.908Z,97885.96
2023-01-17T12:49:38.944Z,97890.46
2023-01-17T12:52:24.996Z,97891.07
2023-01-17T12:55:02.542Z,97891.30
2023-01-17T12:57:55.929Z,97897.90
2023-01-17T13:00:26.137Z,97900.89
2023-01-17T13:03:11.907Z,97907.63
2023-01-17T13:05:45.511Z,97911.62
2023-01-17T13:08:31.192Z,97917.99
2023-01-17T13:11:27.416Z,97923.04
2023-01-17T13:13:57.297Z,97925.41
2023-01-17T13:16:32.980Z,97926.73
2023-01-17T13:20:13.038Z,97929.60
2023-01-17T13:22:41.212Z,97932.77
2023-01-17T13:25:32.390Z,97933.61
2023-01-17T13:28:07.392Z,97938.08
2023-01-17T13:31:02.395Z,97939.95
2023-01-17T13:33:41.340Z,97941.17
2023-01-17T13:36:59.508Z,97950.48
2023-01-17T13:39:58.573Z,97956.02
2023-01-17T13:42:40.493Z,97957.55
2023-01-17T13:45:35.068Z,97958.16
2023-01-17T13:48:18.342Z,97967.66
2023-01-17T13:50:56.964Z,97969.77
2023-01-17T13:53:26.879Z,97974.50
2023-01-17T13:56:18.430Z,97977.36
2023-01-17T13:58:49.751Z,97977.56
2023-01-17T14:01:42.425Z,97983.83
2023-01-17T14:04:11.806Z,97987.08
2023-01-17T14:06:46.224Z,97984.11
2023-01-17T14:09:42.261Z,97989.79
2023-01-17T14:12:13.554Z,97992.00
2023-01-17T14:14:40.839Z,97995.23
2023-01-17T14:17:34.127Z,97999.34
2023-01-17T14:20:07.864Z,98002.52
2023-01-17T14:22:38.314Z,98005.07
2023-01-17T14:25:27.892Z,98007.98
2023-01-17T14:28:31.942Z,98011.90
2023-01-17T14:31:02.501Z,98009.55
2023-01-17T14:33:40.705Z,98011.18
2023-01-17T14:36:32.458Z,98013.43
2023-01-17T14:38:59.639Z,98017.95
2023-01-17T14:41:28.852Z,98025.84
2023-01-17T14:43:58.913Z,98027.41
2023-01-17T14:46:32.177Z,98028.83
2023-01-17T14:49:01.544Z,98035.08
2023-01-17T14:51:29.531Z,98036.11
2023-01-17T14:54:05.724Z,98039.33
2023-01-17T14:56:37.425Z,98038.92
2023-01-17T14:59:10.349Z,98046.13
2023-01-17T15:01:37.542Z,98048.93
2023-01-17T15:04:04.423Z,98049.52
2023-01-17T15:06:40.276Z,98048.17
2023-01-17T15:09:19.142Z,98055.40
2023-01-17T15:11:53.205Z,98058.67
2023-01-17T15:14:26.767Z,98066.39
2023-01-17T15:16:54.104Z,98074.10
2023-01-17T15:19:53.410Z,98082.84
2023-01-17T15:22:20.818Z,98093.54
2023-01-17T15:24:51.142Z,98097.23
2023-01-17T15:27:18.599Z,98093.20
2023-01-17T15:29:48.830Z,98095.20
2023-01-17T15:32:36.860Z,98099.66
2023-01-17T15:35:07.535Z,98106.59
2023-01-17T15:37:57.822Z,98110.47
2023-01-17T15:40:25.607Z,98110.09
2023-01-17T15:43:00.483Z,98106.05
2023-01-17T15:45:32.156Z,98108.34
2023-01-17T15:48:44.645Z,98107.92
2023-01-17T15:51:12.486Z,98113.70
2023-01-17T15:53:44.583Z,98116.08
2023-01-17T15:56:22.084Z,98122.62
2023-01-17T15:58:49.554Z,98128.48
2023-01-17T16:01:24.796Z,98129.92
2023-01-17T16:03:55.398Z,98132.23
2023-01-17T16:06:44.767Z,98130.44
2023-01-17T16:09:24.453Z,98136.50
2023-01-17T16:11:51.164Z,98136.55
2023-01-17T16:14:18.002Z,98141.20
2023-01-17T16:16:50.806Z,98147.39
2023-01-17T16:19:17.723Z,98148.77
2023-01-17T16:21:49.785Z,98149.86
2023-01-17T16:24:16.749Z,98159.05
2023-01-17T16:26:43.394Z,98162.10
2023-01-17T16:29:29.365Z,98167.49
2023-01-17T16:31:56.098Z,98168.40
2023-01-17T16:34:23.320Z,98165.90
2023-01-17T16:36:53.883Z,98160.77
2023-01-17T16:39:20.619Z,98167.35
2023-01-17T16:41:47.330Z,98170.06
2023-01-17T16:44:14.397Z,98170.17
2023-01-17T16:46:41.122Z,98175.23
2023-01-17T16:49:07.794Z,98176.48
2023-01-17T16:51:34.729Z,98179.30
2023-01-17T16:54:01.793Z,98181.42
2023-01-17T16:56:28.722Z,98183.98
2023-01-17T16:58:56.073Z,98184.98
2023-01-17T17:01:24.814Z,98183.91
2023-01-17T17:03:51.720Z,98189.73
2023-01-17T17:06:19.282Z,98189.48
2023-01-17T17:08:46.928Z,98193.48
2023-01-17T17:11:18.956Z,98201.82
2023-01-17T17:13:48.350Z,98204.02
2023-01-17T17:16:18.573Z,98206.60
2023-01-17T17:18:52.913Z,98210.74
2023-01-17T17:21:20.083Z,98216.15
2023-01-17T17:23:50.298Z,98223.95
2023-01-17T17:26:18.061Z,98231.05
2023-01-17T17:28:44.662Z,98235.39
2023-01-17T17:31:11.563Z,98251.54
2023-01-17T17:33:38.588Z,98248.84
2023-01-17T17:36:07.261Z,98259.81
2023-01-17T17:38:34.336Z,98264.97
2023-01-17T17:41:05.931Z,98266.87
2023-01-17T17:43:37.102Z,98266.13
2023-01-17T17:46:04.085Z,98274.14
2023-01-17T17:48:31.218Z,98273.55
2023-01-17T17:50:59.756Z,98277.41
2023-01-17T17:53:27.525Z,98282.84
2023-01-17T17:55:55.801Z,98282.17
2023-01-17T17:58:23.202Z,98286.01
2023-01-17T18:00:50.485Z,98283.63
2023-01-17T18:03:17.699Z,98283.27
2023-01-17T18:05:46.097Z,98284.58
2023-01-17T18:08:13.126Z,98286.53
2023-01-17T18:10:42.117Z,98287.15
2023-01-17T18:13:09.164Z,98291.87
2023-01-17T18:15:35.828Z,98298.88
2023-01-17T18:18:02.857Z,98298.70
2023-01-17T18:20:30.000Z,98300.30
2023-01-17T18:22:57.156Z,98303.20
2023-01-17T18:25:24.180Z,98305.22
2023-01-17T18:27:51.260Z,98312.48
2023-01-17T18:30:18.181Z,98306.11
2023-01-17T18:32:49.392Z,98312.04
2023-01-17T18:35:16.693Z,98316.91
2023-01-17T18:37:43.542Z,98315.66
2023-01-17T18:40:10.679Z,98312.00
2023-01-17T18:42:38.295Z,98316.23
2023-01-17T18:45:05.901Z,98322.81
2023-01-17T18:47:32.843Z,98323.33
2023-01-17T18:49:59.793Z,98329.09
2023-01-17T18:52:26.632Z,98330.86
2023-01-17T18:54:53.645Z,98332.80
2023-01-17T18:57:20.606Z,98338.12
2023-01-17T18:59:47.529Z,98334.02
2023-01-17T19:02:15.272Z,98332.86
2023-01-17T19:04:42.074Z,98337.75
2023-01-17T19:07:10.089Z,98339.20
2023-01-17T19:09:38.241Z,98346.88
2023-01-17T19:12:05.337Z,98350.44
2023-01-17T19:14:32.213Z,98356.70
2023-01-17T19:17:00.782Z,98363.84
2023-01-17T19:19:27.793Z,98366.13
2023-01-17T19:21:54.570Z,98367.31
2023-01-17T19:24:21.285Z,98372.74
2023-01-17T19:26:52.253Z,98376.59
2023-01-17T19:29:19.179Z,98382.42
2023-01-17T19:31:46.168Z,98381.61
2023-01-17T19:34:18.238Z,98387.23
2023-01-17T19:36:45.256Z,98393.48
2023-01-17T19:39:12.304Z,98399.62
2023-01-17T19:41:44.165Z,98401.48
2023-01-17T19:44:12.951Z,98406.19
2023-01-17T19:46:40.516Z,98417.71
2023-01-17T19:49:08.473Z,98426.00
2023-01-17T19:51:35.937Z,98428.42
2023-01-17T19:54:05.953Z,98435.64
2023-01-17T19:56:33.207Z,98440.27
2023-01-17T19:59:01.326Z,98448.16
2023-01-17T20:01:33.648Z,98450.08
2023-01-17T20:04:02.033Z,98456.11
2023-01-17T20:06:34.631Z,98453.65
2023-01-17T20:09:03.287Z,98464.02
2023-01-17T20:11:30.339Z,98468.89
2023-01-17T20:13:58.586Z,98468.42
2023-01-17T20:16:30.026Z,98475.85
2023-01-17T20:18:58.649Z,98472.00
2023-01-17T20:21:27.028Z,98468.91
2023-01-17T20:23:56.015Z,98468.52
2023-01-17T20:26:30.446Z,98467.65
2023-01-17T20:28:57.815Z,98473.46
2023-01-17T20:31:26.201Z,98474.47
2023-01-17T20:33:55.026Z,98480.08
2023-01-17T20:36:24.665Z,98478.84
2023-01-17T20:38:52.880Z,98486.42
2023-01-17T20:41:23.288Z,98492.58
2023-01-17T20:43:52.687Z,98501.43
2023-01-17T20:46:21.875Z,98509.82
2023-01-17T20:48:51.582Z,98514.62
2023-01-17T20:51:20.487Z,98523.86
2023-01-17T20:53:51.357Z,98525.20
2023-01-17T20:56:18.523Z,98527.93
2023-01-17T20:58:45.765Z,98531.06
2023-01-17T21:01:18.523Z,98533.64
2023-01-17T21:03:47.277Z,98537.93
2023-01-17T21:06:14.745Z,98543.23
2023-01-17T21:08:43.891Z,98553.69
2023-01-17T21:11:14.588Z,98561.12
2023-01-17T21:13:41.967Z,98570.23
2023-01-17T21:16:12.070Z,98574.17
2023-01-17T21:18:39.079Z,98576.90
2023-01-17T21:21:12.693Z,98577.83
2023-01-17T21:23:42.186Z,98575.76
2023-01-17T21:26:14.970Z,98581.77
2023-01-17T21:28:43.532Z,98588.36
2023-01-17T21:31:22.227Z,98585.14
2023-01-17T21:34:00.420Z,98591.43
2023-01-17T21:36:30.395Z,98597.84
2023-01-17T21:38:59.529Z,98592.38
2023-01-17T21:41:29.215Z,98591.59
2023-01-17T21:43:58.461Z,98592.30
2023-01-17T21:46:26.815Z,98596.41
2023-01-17T21:48:53.927Z,98601.27
2023-01-17T21:51:21.150Z,98598.91
2023-01-17T21:53:48.225Z,98595.60
2023-01-17T21:56:34.013Z,98591.27
2023-01-17T21:59:00.799Z,98587.34
2023-01-17T22:01:31.575Z,98585.84
2023-01-17T22:04:03.348Z,98583.52
2023-01-17T22:06:38.074Z,98582.23
2023-01-17T22:09:05.762Z,98585.52
2023-01-17T22:11:36.162Z,98589.48
2023-01-17T22:14:04.581Z,98595.33
2023-01-17T22:16:31.792Z,98595.67
2023-01-17T22:18:58.753Z,98602.84
2023-01-17T22:21:27.782Z,98602.83
2023-01-17T22:23:59.283Z,98600.98
2023-01-17T22:26:28.935Z,98599.48
2023-01-17T22:28:59.345Z,98597.42
2023-01-17T22:31:27.622Z,98598.58
2023-01-17T22:34:00.288Z,98595.09
2023-01-17T22:36:28.083Z,98595.23
2023-01-17T22:38:55.401Z,98593.64
2023-01-17T22:41:24.905Z,98602.80
2023-01-17T22:43:54.032Z,98607.37
2023-01-17T22:46:24.211Z,98607.73
2023-01-17T22:48:52.930Z,98610.69
2023-01-17T22:51:21.109Z,98611.09
2023-01-17T22:53:53.316Z,98610.66
2023-01-17T22:56:23.680Z,98612.80
2023-01-17T22:58:50.545Z,98618.76
2023-01-17T23:01:25.298Z,98626.55
2023-01-17T23:03:57.150Z,98633.11
2023-01-17T23:06:32.614Z,98639.20
2023-01-17T23:09:04.351Z,98639.98
2023-01-17T23:11:43.288Z,98638.71
2023-01-17T23:14:15.281Z,98637.73
2023-01-17T23:17:11.395Z,98639.69
2023-01-17T23:19:40.022Z,98641.46
2023-01-17T23:22:20.251Z,98640.61
2023-01-17T23:24:57.437Z,98643.56
2023-01-17T23:27:47.617Z,98658.25
2023-01-17T23:30:17.231Z,98671.23
2023-01-17T23:32:45.634Z,98675.30
2023-01-17T23:35:13.376Z,98678.84
2023-01-17T23:37:59.070Z,98684.45
2023-01-17T23:40:25.774Z,98686.74
2023-01-17T23:43:11.104Z,98698.13
2023-01-17T23:45:38.932Z,98703.67
2023-01-17T23:48:09.235Z,98703.95
2023-01-17T23:50:47.561Z,98706.91
2023-01-17T23:53:21.792Z,98710.39
2023-01-17T23:55:51.130Z,98710.06
2023-01-17T23:58:19.471Z,98715.05
